x

Fred Howard Park, Fl (fhpf1) Weather Station

9:54pm - Wed 24th Aug 2016 All times are EDT. -4 hours from GMT.

  • Wind
    13mph, 16mph gusts
  • Air Temp 84°f
  • Sea Pressure 1018.6mb
  • Fred Howard Park, Fl
  • Fred Howard Park, Fl

More Historic Weather Station data

Upgrade to MSW Pro to gain access to the past 30 days of data for over 8000 Wavebouys and Weather Stations around the globe.

Join Pro

Comparision Forecast

View Surf forecast
   
Wed 08/24 9:54pm 13 16 mph 1018.6mb 84f
9:48pm 11 14 mph 1018.9mb 84f
8:54pm 8 9 mph 1018.7mb 86f
8:48pm 7 9 mph 1018.7mb 86f
7:54pm 7 10 mph 1018.6mb 87f
7:48pm 8 10 mph 1018.6mb 88f
6:54pm 9 11 mph 1017.9mb 88f
6:48pm 9 11 mph 1017.7mb 88f
5:54pm 10 14 mph 1017mb 88f
5:48pm 10 14 mph 1017.2mb 88f
4:54pm 10 14 mph 1017.6mb 87f
4:48pm 7 11 mph 1017.4mb 88f
3:54pm 5 8 mph 1018.7mb 85f
3:48pm 6 8 mph 1018.8mb 85f
2:54pm 10 14 mph 1019.6mb 83f
2:48pm 9 14 mph 1019.3mb 83f
12:54pm 10 15 mph 1019.5mb 89f
11:54am 10 14 mph 1020.3mb 87f
11:48am 9 17 mph 1020.4mb 87f
10:54am 9 14 mph 1020.4mb 85f
10:48am 10 14 mph 1020.5mb 84f
9:54am 10 13 mph 1020.2mb 81f
9:48am 11 15 mph 1019.9mb 81f
8:54am 9 11 mph 1020.2mb 80f
8:48am 10 14 mph 1020.4mb 80f
7:54am 7 9 mph 1019.9mb 80f
7:48am 7 9 mph 1020mb 80f
6:54am 7 8 mph 1019.5mb 79f
6:48am 7 9 mph 1019.4mb 79f
5:54am 8 9 mph 1019.1mb 80f
5:48am 8 9 mph 1019.2mb 80f
4:54am 7 8 mph 1018.9mb 80f
4:48am 7 8 mph 1019mb 80f
3:54am 7 9 mph 1019.3mb 80f
3:48am 7 8 mph 1019.3mb 80f
2:54am 6 8 mph 1019.9mb 79f
2:48am 6 7 mph 1019.8mb 79f
1:54am 9 10 mph 1019.9mb 80f
1:48am 9 11 mph 1019.9mb 80f
12:54am 5 6 mph 1019.8mb 80f
12:48am 6 8 mph 1019.7mb 80f
Tue 08/23 11:54pm 9 11 mph 1019.4mb 81f
11:48pm 9 11 mph 1019.4mb 81f
10:54pm 6
mph
1019.6mb 83f
10:48pm 6
mph
1019.7mb 83f
9:54pm 7 8 mph 1019.7mb 83f
9:48pm 8 9 mph 1019.5mb 83f
8:54pm 17 23 mph 1020.2mb 85f
8:48pm 18 21 mph 1020.1mb 86f
7:54pm 11 16 mph 1019.7mb 88f
7:48pm 11 16 mph 1019.8mb 87f
6:54pm 17 20 mph 1019.1mb 88f
6:48pm 15 20 mph 1019.1mb 88f
5:54pm 16 20 mph 1018.7mb 87f
5:48pm 15 20 mph 1018.6mb 87f
3:54pm 13 15 mph 1018.8mb 89f
3:48pm 13 15 mph 1019mb 90f
2:54pm 13 15 mph 1019.8mb 88f
2:48pm 13 15 mph 1019.9mb 88f
1:54pm 9 10 mph 1020.8mb 90f
1:48pm 8 11 mph 1020.9mb 89f
12:54pm 10 13 mph 1021.4mb 88f
12:48pm 10 13 mph 1021.5mb 88f
11:54am 9 10 mph 1021.7mb 88f
11:48am 9 10 mph 1021.6mb 88f
10:54am 9 10 mph 1021.9mb 87f
10:48am 8 9 mph 1021.9mb 87f
9:54am 5 7 mph 1021.7mb 87f
9:48am 6 7 mph 1021.7mb 87f
8:54am 5 6 mph 1021.6mb 85f
8:48am 6 8 mph 1021.5mb 84f
7:54am 5
mph
1021.1mb 83f
7:48am 5 6 mph 1020.7mb 83f
6:54am 6
mph
1020mb 82f
6:48am 6 7 mph 1019.8mb 82f
5:54am 3 5 mph 1019.8mb 82f
5:48am 3 5 mph 1019.7mb 82f
4:54am 5 6 mph 1019.6mb 82f
4:48am 5 6 mph 1019.8mb 82f
3:54am 5 6 mph 1020mb 83f
3:48am 5 8 mph 1019.6mb 83f
2:54am 9 10 mph 1019.8mb 86f
2:48am 9 13 mph 1019.9mb 86f
1:54am 9 13 mph 1020.1mb 86f
1:48am 10 13 mph 1020.1mb 86f
12:54am 9 11 mph 1020.1mb 86f
12:48am 9 11 mph 1020.1mb 86f
Mon 08/22 11:54pm 8 10 mph 1020.3mb 86f
11:48pm 8 10 mph 1020.3mb 86f
10:54pm 8 10 mph 1020.4mb 86f
10:48pm 8 11 mph 1020.3mb 86f
9:54pm 11 14 mph 1019.8mb 87f
9:48pm 11 13 mph 1019.9mb 87f
8:54pm 10 13 mph 1019.2mb 87f
8:48pm 9 11 mph 1019mb 87f
7:54pm 9 11 mph 1018.7mb 87f
7:48pm 8 10 mph 1018.7mb 88f
6:54pm 9 10 mph 1018.2mb 88f
6:48pm 9 13 mph 1018.2mb 88f
5:54pm 8 10 mph 1018.3mb 89f
5:48pm 7 9 mph 1018.3mb 90f
4:54pm 8 10 mph 1018.4mb 89f
4:48pm 9 10 mph 1018.4mb 90f
3:54pm 9 13 mph 1018.5mb 89f
3:48pm 9 13 mph 1018.6mb 90f
2:54pm 8 11 mph 1019.4mb 90f
2:48pm 8 10 mph 1019.5mb 89f
1:54pm 6 8 mph 1019.8mb 89f
1:48pm 7 9 mph 1019.8mb 90f
11:54am  -  1 mph 1020.4mb 88f
11:48am  -  1 mph 1020.5mb 88f
10:54am 5 7 mph 1020.3mb 83f
10:48am 5
mph
1020.1mb 83f
9:54am  -  1 mph 1019.5mb 83f
9:48am 2 3 mph 1019.7mb 82f
8:54am 2
mph
1019.1mb 85f
8:48am 2
mph
1019.1mb 85f
7:54am 3 5 mph 1018.4mb 82f
7:48am 3 5 mph 1018.3mb 82f
6:54am 3 5 mph 1018.2mb 82f
6:48am 5
mph
1017.7mb 82f
5:54am 1 3 mph 1017.6mb 83f
5:48am  -  2 mph 1017.4mb 84f
4:54am 3 5 mph 1017.6mb 85f
4:48am 3 5 mph 1018mb 85f
3:54am 6 7 mph 1017.3mb 85f
3:48am 3 5 mph 1017.4mb 85f
2:54am 6 9 mph 1016.9mb 85f
2:48am 6 8 mph 1017.3mb 85f